Richlands, VA

2:31 AM EST on January 24, 2017 (GMT -0500)
Tazewell County | | Change Station

Elev 2651 ft 37.06 °N, 81.80 °W | Updated 16 minutes ago

Drizzle
Drizzle
40 °F
Feels Like 34 °F
N
9
Wind Variable Wind from NW

Today
High -- | Low -- °F
--% Chance of Precip.
Yesterday
High -- | Low -- °F
Precip. -- in
Pressure 29.59 in
Visibility 1.8 miles
Clouds Overcast 400 ft
Windchill 34 °F
Dew Point 40 °F
Humidity 100%
Rainfall 0.02 in
Snow Depth Not available.
7:35 AM 5:43 PM
Waning Crescent, 13% visible
METAR KJFZ 240715Z AUTO 31008KT 1 3/4SM DZ OVC004 05/05 A2959 RMK AO2 T00460046
Pressure 29.59 in
Visibility 1.8 miles
Clouds Overcast 400 ft
Windchill 34 °F
Dew Point 40 °F
Humidity 100%
Rainfall 0.02 in
Snow Depth Not available.
7:35 AM 5:43 PM
Waning Crescent, 13% visible
METAR KJFZ 240715Z AUTO 31008KT 1 3/4SM DZ OVC004 05/05 A2959 RMK AO2 T00460046

Get Your Daily Forecast Email!

Thanks for signing up!

Be on the lookout for a verification email in your inbox.

You'll start receiving the daily forecast at 8 AM.

×

10-Day Weather Forecast

Almanac

Astronomy

Jan. 24, 2017 Rise Set
Actual Time
Civil Twilight
Nautical Twilight
Astronomical Twilight
Moon
Length of Visible Light
Length of Day
Tomorrow will be .
, % of the Moon is Illuminated

Today's Extremes

State Highs State Lows

Community

WunderPhotos

Upload Photos

1,962,540 photos uploaded!

WunderBlog® & News

Nearby

Air Quality

  Air Quality AQ Index Pollutant
Not available.

Snow Depth

Station Depth Elevation

Earthquake Activity

City Distance Mag. Time & Date
Minimum magnitude displayed is 2.5.

Coastal Water Temperatures

Place Temperature

Stations

Nearby Weather Stations

Station Location Temp. Windchill Dew Point Humidity Wind Precip. Elev Updated Type
                   

Watches & Warnings

There are currently no watches in effect.